createdAt,value
2019-04-06T00:00:30.292Z,60.70
2019-04-06T00:01:30.310Z,61.90
2019-04-06T00:02:30.264Z,56.60
2019-04-06T00:03:30.267Z,61.90
2019-04-06T00:04:30.295Z,62.30
2019-04-06T00:05:30.244Z,60.80
2019-04-06T00:06:30.312Z,59.80
2019-04-06T00:07:30.252Z,60.90
2019-04-06T00:08:30.207Z,60.20
2019-04-06T00:09:30.198Z,57.80
2019-04-06T00:10:30.182Z,61.30
2019-04-06T00:11:30.172Z,61.90
2019-04-06T00:12:30.189Z,59.80
2019-04-06T00:13:30.160Z,61.80
2019-04-06T00:14:30.144Z,60.80
2019-04-06T00:15:30.137Z,59.70
2019-04-06T00:16:30.170Z,58.20
2019-04-06T00:17:30.128Z,61.00
2019-04-06T00:18:30.119Z,58.30
2019-04-06T00:19:30.102Z,59.70
2019-04-06T00:20:30.090Z,59.70
2019-04-06T00:21:30.076Z,60.50
2019-04-06T00:22:30.073Z,60.80
2019-04-06T00:23:30.043Z,61.30
2019-04-06T00:24:30.089Z,61.70
2019-04-06T00:25:30.638Z,58.90
2019-04-06T00:26:30.011Z,60.80
2019-04-06T00:27:30.021Z,61.00
2019-04-06T00:28:29.993Z,60.70
2019-04-06T00:29:30.022Z,60.20
2019-04-06T00:30:29.977Z,57.40
2019-04-06T00:31:29.960Z,61.50
2019-04-06T00:32:29.965Z,63.40
2019-04-06T00:33:29.933Z,59.20
2019-04-06T00:34:29.930Z,62.10
2019-04-06T00:35:29.921Z,61.80
2019-04-06T00:36:29.908Z,58.70
2019-04-06T00:37:29.921Z,64.30
2019-04-06T00:38:29.892Z,63.70
2019-04-06T00:39:29.870Z,62.00
2019-04-06T00:40:29.869Z,60.00
2019-04-06T00:41:29.849Z,59.80
2019-04-06T00:42:29.867Z,61.30
2019-04-06T00:43:29.839Z,62.10
2019-04-06T00:44:29.822Z,58.10
2019-04-06T00:45:29.808Z,61.60
2019-04-06T00:46:29.797Z,57.60
2019-04-06T00:47:29.816Z,63.60
2019-04-06T00:48:29.789Z,62.30
2019-04-06T00:49:29.768Z,57.90
2019-04-06T00:50:29.762Z,58.50
2019-04-06T00:51:29.751Z,59.80
2019-04-06T00:52:29.760Z,61.70
2019-04-06T00:53:29.727Z,59.10
2019-04-06T00:54:29.719Z,58.90
2019-04-06T00:55:29.703Z,60.50
2019-04-06T00:56:29.698Z,61.50
2019-04-06T00:57:29.704Z,58.70
2019-04-06T00:58:29.668Z,59.00
2019-04-06T00:59:29.662Z,61.30
2019-04-06T01:00:29.649Z,60.20
2019-04-06T01:01:29.653Z,60.30
2019-04-06T01:02:29.689Z,58.10
2019-04-06T01:03:29.643Z,58.10
2019-04-06T01:04:29.609Z,57.40
2019-04-06T01:05:29.595Z,60.00
2019-04-06T01:06:29.587Z,58.60
2019-04-06T01:07:29.577Z,57.40
2019-04-06T01:08:29.589Z,61.90
2019-04-06T01:09:29.556Z,59.30
2019-04-06T01:10:29.582Z,60.20
2019-04-06T01:11:29.529Z,56.10
2019-04-06T01:12:29.515Z,60.50
2019-04-06T01:13:29.590Z,59.10
2019-04-06T01:14:29.512Z,60.90
2019-04-06T01:15:29.491Z,61.50
2019-04-06T01:16:29.525Z,58.10
2019-04-06T01:17:29.470Z,62.30
2019-04-06T01:18:29.482Z,55.50
2019-04-06T01:19:29.445Z,62.00
2019-04-06T01:20:29.433Z,57.70
2019-04-06T01:21:29.425Z,58.50
2019-04-06T01:22:29.421Z,60.20
2019-04-06T01:23:29.450Z,59.90
2019-04-06T01:24:29.400Z,56.70
2019-04-06T01:25:29.393Z,58.00
2019-04-06T01:26:29.369Z,55.90
2019-04-06T01:27:29.370Z,58.90
2019-04-06T01:28:29.384Z,60.10
2019-04-06T01:29:29.337Z,58.40
2019-04-06T01:30:29.346Z,61.20
2019-04-06T01:31:29.430Z,56.50
2019-04-06T01:32:29.346Z,54.30
2019-04-06T01:33:29.318Z,56.90
2019-04-06T01:34:29.285Z,60.40
2019-04-06T01:35:29.271Z,55.00
2019-04-06T01:36:29.270Z,55.80
2019-04-06T01:37:29.277Z,51.80
2019-04-06T01:38:29.279Z,50.20
2019-04-06T01:39:29.237Z,44.30
2019-04-06T01:40:29.230Z,52.60
2019-04-06T01:41:29.271Z,56.30
2019-04-06T01:42:29.211Z,45.20
2019-04-06T01:43:29.217Z,53.30
2019-04-06T01:44:29.179Z,49.30
2019-04-06T01:45:29.179Z,42.60
2019-04-06T01:46:29.162Z,47.30
2019-04-06T01:47:29.159Z,44.40
2019-04-06T01:48:29.158Z,43.10
2019-04-06T01:49:29.123Z,51.80
2019-04-06T01:50:29.113Z,48.70
2019-04-06T01:51:29.201Z,43.40
2019-04-06T01:52:29.103Z,47.10
2019-04-06T01:53:29.110Z,43.90
2019-04-06T01:54:29.074Z,38.50
2019-04-06T01:55:29.055Z,36.20
2019-04-06T01:56:29.155Z,37.00
2019-04-06T01:57:29.039Z,36.40
2019-04-06T01:58:29.026Z,32.50
2019-04-06T01:59:29.044Z,33.80
2019-04-06T02:00:29.033Z,29.20
2019-04-06T02:01:28.998Z,29.90
2019-04-06T02:02:28.992Z,30.70
2019-04-06T02:03:28.981Z,28.30
2019-04-06T02:04:28.989Z,27.10
2019-04-06T02:05:28.955Z,28.50
2019-04-06T02:06:28.947Z,30.00
2019-04-06T02:07:28.935Z,27.70
2019-04-06T02:08:28.917Z,30.40
2019-04-06T02:09:29.004Z,27.60
2019-04-06T02:10:28.898Z,28.40
2019-04-06T02:11:28.884Z,26.30
2019-04-06T02:12:28.874Z,26.50
2019-04-06T02:13:28.876Z,27.70
2019-04-06T02:14:28.875Z,28.10
2019-04-06T02:15:28.847Z,27.80
2019-04-06T02:16:28.873Z,27.00
2019-04-06T02:17:28.833Z,28.00
2019-04-06T02:18:28.836Z,27.50
2019-04-06T02:19:28.821Z,26.60
2019-04-06T02:20:28.795Z,28.80
2019-04-06T02:21:28.787Z,27.10
2019-04-06T02:22:28.765Z,27.20
2019-04-06T02:23:28.759Z,27.90
2019-04-06T02:24:28.871Z,30.20
2019-04-06T02:25:28.739Z,27.10
2019-04-06T02:26:30.613Z,27.80
2019-04-06T02:27:28.711Z,27.80
2019-04-06T02:28:28.704Z,28.90
2019-04-06T02:29:28.735Z,27.20
2019-04-06T02:30:28.867Z,26.70
2019-04-06T02:31:28.675Z,30.00
2019-04-06T02:32:28.676Z,27.10
2019-04-06T02:33:28.653Z,25.80
2019-04-06T02:34:28.663Z,27.70
2019-04-06T02:35:28.628Z,26.50
2019-04-06T02:36:28.620Z,27.50
2019-04-06T02:37:28.604Z,26.40
2019-04-06T02:38:28.712Z,26.60
2019-04-06T02:39:28.614Z,25.50
2019-04-06T02:40:28.581Z,28.80
2019-04-06T02:41:28.701Z,27.00
2019-04-06T02:42:28.561Z,27.40
2019-04-06T02:43:28.541Z,25.70
2019-04-06T02:44:28.576Z,27.30
2019-04-06T02:45:28.518Z,26.50
2019-04-06T02:46:30.861Z,26.50
2019-04-06T02:47:28.504Z,25.80
2019-04-06T02:48:28.495Z,26.10
2019-04-06T02:49:28.529Z,26.50
2019-04-06T02:50:28.483Z,26.90
2019-04-06T02:51:28.454Z,26.10
2019-04-06T02:52:28.452Z,25.60
2019-04-06T02:53:28.437Z,25.60
2019-04-06T02:54:28.600Z,25.60
2019-04-06T02:55:28.594Z,27.00
2019-04-06T02:56:28.406Z,26.40
2019-04-06T02:57:28.396Z,28.30
2019-04-06T02:58:28.392Z,26.30
2019-04-06T02:59:28.402Z,26.70
2019-04-06T03:00:28.382Z,26.00
2019-04-06T03:01:28.366Z,26.10
2019-04-06T03:02:28.352Z,26.50
2019-04-06T03:03:28.342Z,28.50
2019-04-06T03:04:28.321Z,27.60
2019-04-06T03:05:28.371Z,25.50
2019-04-06T03:06:28.294Z,26.60
2019-04-06T03:07:28.334Z,25.50
2019-04-06T03:08:28.280Z,26.10
2019-04-06T03:09:28.272Z,25.50
2019-04-06T03:10:28.285Z,25.30
2019-04-06T03:11:28.235Z,25.40
2019-04-06T03:12:28.285Z,26.40
2019-04-06T03:13:28.222Z,27.80
2019-04-06T03:14:28.212Z,25.70
2019-04-06T03:15:28.226Z,27.80
2019-04-06T03:16:28.194Z,26.40
2019-04-06T03:17:28.173Z,27.20
2019-04-06T03:18:28.197Z,28.40
2019-04-06T03:19:28.281Z,27.20
2019-04-06T03:20:28.167Z,27.00
2019-04-06T03:21:28.156Z,26.00
2019-04-06T03:22:28.129Z,27.60
2019-04-06T03:23:28.252Z,26.60
2019-04-06T03:24:28.103Z,27.30
2019-04-06T03:25:28.110Z,28.80
2019-04-06T03:26:28.105Z,27.10
2019-04-06T03:27:28.081Z,24.70
2019-04-06T03:28:28.171Z,27.30
2019-04-06T03:29:28.075Z,27.30
2019-04-06T03:30:28.111Z,27.20
2019-04-06T03:31:28.403Z,26.40
2019-04-06T03:32:28.042Z,27.40
2019-04-06T03:33:28.154Z,28.80
2019-04-06T03:34:28.033Z,26.40
2019-04-06T03:35:27.986Z,26.90
2019-04-06T03:36:27.995Z,27.60
2019-04-06T03:37:27.960Z,26.50
2019-04-06T03:38:28.110Z,28.00
2019-04-06T03:39:27.948Z,26.50
2019-04-06T03:40:27.950Z,27.80
2019-04-06T03:41:27.949Z,26.40
2019-04-06T03:42:28.012Z,27.20
2019-04-06T03:43:27.906Z,26.90
2019-04-06T03:44:27.899Z,27.60
2019-04-06T03:45:27.893Z,27.00
2019-04-06T03:46:27.985Z,28.50
2019-04-06T03:47:27.862Z,27.40
2019-04-06T03:48:27.850Z,28.00
2019-04-06T03:49:27.840Z,28.40
2019-04-06T03:50:27.833Z,27.30
2019-04-06T03:51:27.844Z,28.70
2019-04-06T03:52:27.803Z,26.40
2019-04-06T03:53:27.964Z,27.10
2019-04-06T03:54:27.793Z,26.90
2019-04-06T03:55:27.777Z,27.30
2019-04-06T03:56:27.780Z,28.30
2019-04-06T03:57:27.763Z,25.90
2019-04-06T03:58:27.740Z,28.60
2019-04-06T03:59:27.724Z,27.30
2019-04-06T04:00:36.194Z,26.40
2019-04-06T04:01:27.722Z,27.00
2019-04-06T04:02:27.732Z,27.00
2019-04-06T04:03:27.680Z,26.00
2019-04-06T04:04:27.680Z,25.60
2019-04-06T04:05:27.670Z,26.10
2019-04-06T04:06:27.711Z,26.10
2019-04-06T04:07:27.658Z,26.00
2019-04-06T04:08:27.789Z,25.40
2019-04-06T04:09:27.631Z,27.20
2019-04-06T04:10:27.729Z,26.90
2019-04-06T04:11:27.622Z,27.10
2019-04-06T04:12:27.592Z,25.90
2019-04-06T04:13:27.585Z,26.20
2019-04-06T04:14:27.591Z,26.50
2019-04-06T04:15:27.588Z,26.20
2019-04-06T04:16:27.567Z,26.00
2019-04-06T04:17:27.548Z,25.80
2019-04-06T04:18:27.525Z,25.20
2019-04-06T04:19:27.539Z,27.40
2019-04-06T04:20:27.540Z,25.60
2019-04-06T04:21:27.525Z,26.60
2019-04-06T04:22:27.480Z,27.00
2019-04-06T04:23:27.712Z,26.20
2019-04-06T04:24:27.464Z,27.00
2019-04-06T04:25:27.487Z,27.40
2019-04-06T04:26:27.635Z,26.60
2019-04-06T04:27:30.139Z,26.90
2019-04-06T04:28:27.465Z,26.30
2019-04-06T04:29:27.416Z,26.50
2019-04-06T04:30:33.388Z,29.00
2019-04-06T04:31:28.413Z,26.10
2019-04-06T04:32:27.384Z,26.00
2019-04-06T04:33:27.360Z,26.90
2019-04-06T04:34:27.488Z,26.80
2019-04-06T04:35:27.336Z,26.30
2019-04-06T04:36:27.349Z,25.90
2019-04-06T04:37:27.397Z,27.00
2019-04-06T04:38:27.308Z,26.90
2019-04-06T04:39:27.296Z,26.20
2019-04-06T04:40:27.299Z,26.50
2019-04-06T04:41:27.460Z,26.70
2019-04-06T04:42:27.279Z,25.60
2019-04-06T04:43:27.291Z,26.00
2019-04-06T04:44:27.299Z,26.60
2019-04-06T04:45:27.231Z,25.60
2019-04-06T04:46:27.520Z,26.00
2019-04-06T04:47:27.236Z,25.60
2019-04-06T04:48:27.209Z,25.70
2019-04-06T04:49:27.197Z,25.10
2019-04-06T04:50:27.172Z,26.10
2019-04-06T04:51:27.163Z,26.00
2019-04-06T04:52:27.237Z,26.40
2019-04-06T04:53:27.182Z,27.40
2019-04-06T04:54:27.148Z,26.10
2019-04-06T04:55:27.120Z,26.20
2019-04-06T04:56:27.111Z,26.00
2019-04-06T04:57:27.133Z,24.60
2019-04-06T04:58:27.099Z,26.40
2019-04-06T04:59:27.107Z,25.50
2019-04-06T05:00:27.072Z,26.80
2019-04-06T05:01:27.062Z,26.30
2019-04-06T05:02:27.064Z,26.20
2019-04-06T05:03:27.041Z,26.70
2019-04-06T05:04:27.026Z,26.70
2019-04-06T05:05:27.036Z,25.60
2019-04-06T05:06:27.008Z,27.80
2019-04-06T05:07:27.126Z,25.50
2019-04-06T05:08:27.213Z,28.10
2019-04-06T05:09:26.983Z,25.90
2019-04-06T05:10:26.970Z,25.70
2019-04-06T05:11:26.966Z,27.00
2019-04-06T05:12:26.963Z,28.10
2019-04-06T05:13:26.957Z,26.70
2019-04-06T05:14:26.934Z,26.50
2019-04-06T05:15:26.913Z,26.30
2019-04-06T05:16:26.904Z,27.00
2019-04-06T05:17:28.678Z,27.70
2019-04-06T05:18:27.478Z,27.30
2019-04-06T05:19:28.450Z,26.00
2019-04-06T05:20:28.430Z,27.40
2019-04-06T05:21:27.171Z,27.30
2019-04-06T05:22:27.201Z,27.70
2019-04-06T05:23:30.140Z,27.50
2019-04-06T05:24:27.173Z,26.00
2019-04-06T05:25:27.136Z,27.00
2019-04-06T05:26:36.838Z,42.20
2019-04-06T05:27:28.078Z,27.50
2019-04-06T05:28:26.903Z,35.60
2019-04-06T05:29:26.841Z,27.40
2019-04-06T05:30:27.029Z,26.30
2019-04-06T05:31:26.953Z,29.50
2019-04-06T05:32:26.828Z,27.30
2019-04-06T05:33:26.921Z,30.30
2019-04-06T05:34:26.777Z,29.40
2019-04-06T05:35:27.347Z,27.10
2019-04-06T05:36:26.760Z,27.30
2019-04-06T05:37:26.711Z,27.10
2019-04-06T05:38:27.226Z,27.40
2019-04-06T05:40:22.577Z,27.80
2019-04-06T05:40:27.808Z,27.50
2019-04-06T05:41:26.790Z,28.60
2019-04-06T05:42:26.855Z,27.10
2019-04-06T05:43:26.676Z,27.30
2019-04-06T05:44:26.743Z,26.90
2019-04-06T05:45:26.611Z,28.90
2019-04-06T05:46:26.619Z,26.70
2019-04-06T05:47:26.660Z,27.40
2019-04-06T05:48:26.739Z,28.10
2019-04-06T05:49:26.553Z,27.90
2019-04-06T05:50:26.544Z,27.60
2019-04-06T05:51:26.544Z,29.30
2019-04-06T05:52:26.542Z,30.00
2019-04-06T05:53:26.678Z,29.10
2019-04-06T05:54:26.519Z,29.80
2019-04-06T05:55:26.486Z,29.80
2019-04-06T05:56:26.468Z,28.40
2019-04-06T05:57:26.496Z,28.40
2019-04-06T05:58:26.492Z,29.00
2019-04-06T05:59:26.444Z,28.50
2019-04-06T06:00:26.500Z,28.30
2019-04-06T06:01:26.424Z,28.30
2019-04-06T06:02:26.416Z,28.50
2019-04-06T06:03:26.432Z,30.00
2019-04-06T06:04:26.418Z,29.40
2019-04-06T06:05:26.521Z,26.60
2019-04-06T06:06:26.372Z,28.60
2019-04-06T06:07:26.377Z,30.30
2019-04-06T06:08:26.405Z,28.50
2019-04-06T06:09:26.570Z,30.40
2019-04-06T06:10:26.350Z,31.20
2019-04-06T06:11:26.320Z,29.40
2019-04-06T06:12:26.315Z,30.40
2019-04-06T06:13:26.332Z,28.50
2019-04-06T06:14:26.474Z,29.70
2019-04-06T06:15:26.373Z,29.00
2019-04-06T06:16:26.264Z,28.70
2019-04-06T06:17:26.252Z,29.20
2019-04-06T06:18:27.683Z,29.60
2019-04-06T06:19:26.274Z,28.90
2019-04-06T06:20:26.232Z,29.40
2019-04-06T06:21:26.230Z,29.80
2019-04-06T06:22:26.203Z,28.70
2019-04-06T06:23:26.184Z,30.80
2019-04-06T06:24:26.212Z,32.40
2019-04-06T06:25:26.174Z,29.90
2019-04-06T06:26:26.176Z,29.90
2019-04-06T06:27:26.130Z,31.60
2019-04-06T06:28:26.213Z,31.40
2019-04-06T06:29:26.164Z,30.00
2019-04-06T06:30:26.140Z,30.60
2019-04-06T06:31:26.266Z,29.80
2019-04-06T06:32:26.096Z,29.00
2019-04-06T06:33:26.087Z,30.00
2019-04-06T06:34:26.198Z,31.10
2019-04-06T06:35:26.052Z,31.60
2019-04-06T06:36:26.042Z,29.00
2019-04-06T06:37:26.215Z,31.40
2019-04-06T06:38:26.150Z,29.90
2019-04-06T06:39:33.316Z,30.10
2019-04-06T06:40:26.006Z,33.70
2019-04-06T06:41:25.980Z,30.70
2019-04-06T06:42:25.984Z,29.40
2019-04-06T06:43:25.970Z,30.20
2019-04-06T06:44:25.983Z,29.40
2019-04-06T06:45:25.946Z,29.10
2019-04-06T06:46:25.938Z,30.50
2019-04-06T06:47:25.920Z,29.30
2019-04-06T06:48:25.905Z,31.70
2019-04-06T06:49:25.924Z,29.50
2019-04-06T06:50:25.898Z,33.60
2019-04-06T06:51:25.909Z,31.70
2019-04-06T06:52:25.872Z,30.60
2019-04-06T06:53:25.854Z,31.70
2019-04-06T06:54:25.876Z,30.60
2019-04-06T06:55:26.929Z,32.30
2019-04-06T06:56:25.825Z,31.80
2019-04-06T06:57:25.989Z,31.70
2019-04-06T06:58:26.267Z,32.20
2019-04-06T06:59:25.813Z,30.20
2019-04-06T07:00:25.934Z,31.40
2019-04-06T07:01:25.798Z,30.50
2019-04-06T07:02:25.776Z,30.20
2019-04-06T07:03:25.752Z,33.60
2019-04-06T07:04:25.759Z,31.90
2019-04-06T07:05:25.758Z,31.70
2019-04-06T07:06:25.733Z,30.90
2019-04-06T07:07:25.711Z,31.00
2019-04-06T07:08:25.786Z,33.10
2019-04-06T07:09:25.699Z,30.00
2019-04-06T07:10:25.674Z,30.20
2019-04-06T07:11:25.734Z,31.90
2019-04-06T07:12:25.688Z,31.00
2019-04-06T07:13:25.645Z,31.30
2019-04-06T07:14:25.667Z,32.20
2019-04-06T07:15:25.620Z,30.70
2019-04-06T07:16:25.626Z,35.80
2019-04-06T07:17:25.602Z,33.30
2019-04-06T07:18:25.593Z,32.40
2019-04-06T07:19:25.568Z,35.30
2019-04-06T07:20:25.757Z,31.60
2019-04-06T07:21:25.589Z,32.20
2019-04-06T07:22:25.544Z,45.20
2019-04-06T07:23:25.539Z,33.40
2019-04-06T07:24:25.544Z,33.40
2019-04-06T07:25:25.532Z,37.80
2019-04-06T07:26:25.596Z,33.80
2019-04-06T07:27:25.704Z,33.20
2019-04-06T07:28:37.138Z,31.60
2019-04-06T07:29:26.476Z,31.20
2019-04-06T07:30:25.750Z,33.20
2019-04-06T07:31:25.467Z,30.20
2019-04-06T07:32:25.437Z,32.70
2019-04-06T07:33:25.482Z,31.50
2019-04-06T07:34:25.428Z,32.40
2019-04-06T07:35:25.844Z,34.00
2019-04-06T07:36:25.503Z,32.90
2019-04-06T07:37:25.586Z,32.30
2019-04-06T07:38:25.385Z,34.70
2019-04-06T07:39:25.558Z,34.30
2019-04-06T07:40:25.367Z,32.80
2019-04-06T07:41:25.342Z,31.40
2019-04-06T07:42:25.338Z,33.00
2019-04-06T07:43:25.332Z,33.70
2019-04-06T07:44:25.456Z,34.30
2019-04-06T07:45:25.340Z,34.20
2019-04-06T07:46:25.288Z,30.70
2019-04-06T07:47:25.278Z,36.10
2019-04-06T07:48:25.264Z,33.70
2019-04-06T07:49:25.250Z,32.10
2019-04-06T07:50:25.306Z,31.30
2019-04-06T07:51:25.284Z,33.20
2019-04-06T07:52:25.470Z,36.80
2019-04-06T07:53:25.248Z,32.90
2019-04-06T07:54:25.200Z,32.10
2019-04-06T07:55:25.228Z,33.00
2019-04-06T07:56:25.177Z,32.40
2019-04-06T07:57:25.429Z,32.90
2019-04-06T07:58:25.157Z,34.50
2019-04-06T07:59:25.160Z,32.00
2019-04-06T08:00:25.160Z,33.60
2019-04-06T08:01:25.135Z,33.90
2019-04-06T08:02:25.170Z,34.00
2019-04-06T08:03:25.107Z,32.50
2019-04-06T08:04:25.089Z,31.60
2019-04-06T08:05:25.095Z,40.60
2019-04-06T08:06:25.069Z,32.20
2019-04-06T08:07:25.086Z,33.00
2019-04-06T08:08:25.052Z,32.60
2019-04-06T08:09:25.052Z,33.70
2019-04-06T08:10:25.040Z,32.40
2019-04-06T08:11:25.029Z,34.30
2019-04-06T08:12:25.011Z,35.40
2019-04-06T08:13:25.103Z,33.70
2019-04-06T08:14:24.990Z,33.60
2019-04-06T08:15:24.999Z,34.80
2019-04-06T08:16:24.980Z,36.70
2019-04-06T08:17:24.960Z,36.70
2019-04-06T08:18:24.945Z,32.90
2019-04-06T08:19:24.943Z,35.20
2019-04-06T08:20:24.937Z,34.30
2019-04-06T08:21:24.944Z,34.90
2019-04-06T08:22:24.902Z,34.40
2019-04-06T08:23:24.886Z,32.70
2019-04-06T08:24:25.877Z,35.60
2019-04-06T08:25:24.868Z,35.70
2019-04-06T08:26:25.644Z,34.10
2019-04-06T08:27:24.845Z,34.80
2019-04-06T08:28:24.843Z,35.20
2019-04-06T08:29:24.822Z,34.60
2019-04-06T08:30:24.853Z,33.00
2019-04-06T08:31:24.821Z,31.60
2019-04-06T08:32:24.816Z,39.10
2019-04-06T08:33:24.835Z,33.60
2019-04-06T08:34:24.776Z,33.30
2019-04-06T08:35:26.419Z,32.50
2019-04-06T08:36:24.780Z,32.50
2019-04-06T08:37:24.747Z,34.50
2019-04-06T08:38:24.949Z,34.10
2019-04-06T08:39:25.798Z,32.80
2019-04-06T08:40:24.714Z,32.60
2019-04-06T08:41:24.719Z,37.00
2019-04-06T08:42:24.837Z,36.50
2019-04-06T08:43:24.682Z,32.70
2019-04-06T08:44:24.660Z,33.50
2019-04-06T08:45:24.660Z,35.60
2019-04-06T08:46:24.661Z,33.20
2019-04-06T08:47:24.662Z,31.90
2019-04-06T08:48:24.651Z,31.80
2019-04-06T08:49:24.633Z,32.10
2019-04-06T08:50:24.603Z,34.70
2019-04-06T08:51:24.629Z,37.90
2019-04-06T08:52:24.589Z,32.10
2019-04-06T08:53:24.571Z,32.40
2019-04-06T08:54:24.573Z,32.20
2019-04-06T08:55:24.550Z,32.20
2019-04-06T08:56:24.587Z,35.90
2019-04-06T08:57:24.655Z,32.70
2019-04-06T08:58:24.524Z,32.50
2019-04-06T08:59:24.659Z,35.80
2019-04-06T09:00:24.510Z,33.90
2019-04-06T09:01:24.537Z,32.10
2019-04-06T09:02:24.486Z,33.50
2019-04-06T09:03:24.481Z,31.50
2019-04-06T09:04:24.506Z,32.00
2019-04-06T09:05:24.670Z,31.90
2019-04-06T09:06:24.874Z,31.70
2019-04-06T09:07:24.420Z,32.20
2019-04-06T09:08:24.479Z,33.70
2019-04-06T09:09:24.459Z,33.60
2019-04-06T09:10:24.413Z,34.60
2019-04-06T09:11:24.398Z,31.90
2019-04-06T09:12:24.385Z,34.80
2019-04-06T09:13:24.362Z,35.40
2019-04-06T09:14:24.354Z,32.20
2019-04-06T09:15:24.358Z,34.10
2019-04-06T09:16:24.621Z,35.40
2019-04-06T09:17:24.444Z,32.80
2019-04-06T09:18:24.339Z,32.00
2019-04-06T09:19:24.295Z,32.10
2019-04-06T09:20:24.292Z,32.90
2019-04-06T09:21:24.279Z,30.90
2019-04-06T09:22:24.306Z,32.00
2019-04-06T09:23:24.276Z,31.60
2019-04-06T09:24:24.238Z,33.50
2019-04-06T09:25:24.243Z,36.70
2019-04-06T09:26:24.224Z,32.20
2019-04-06T09:27:24.259Z,32.50
2019-04-06T09:28:24.332Z,36.20
2019-04-06T09:29:24.649Z,31.60
2019-04-06T09:30:24.177Z,31.70
2019-04-06T09:31:24.168Z,39.50
2019-04-06T09:32:24.352Z,37.90
2019-04-06T09:33:24.158Z,33.80
2019-04-06T09:34:24.159Z,31.30
2019-04-06T09:35:24.941Z,33.80
2019-04-06T09:36:24.136Z,32.60
2019-04-06T09:37:24.127Z,34.00
2019-04-06T09:38:24.294Z,32.00
2019-04-06T09:39:24.120Z,31.60
2019-04-06T09:40:24.083Z,30.70
2019-04-06T09:41:26.092Z,33.30
2019-04-06T09:42:24.076Z,30.90
2019-04-06T09:43:24.035Z,31.50
2019-04-06T09:44:24.036Z,30.80
2019-04-06T09:45:24.012Z,30.10
2019-04-06T09:46:24.019Z,30.10
2019-04-06T09:47:24.171Z,29.30
2019-04-06T09:48:23.978Z,30.50
2019-04-06T09:49:23.977Z,29.40
2019-04-06T09:50:23.979Z,31.40
2019-04-06T09:51:23.953Z,29.40
2019-04-06T09:52:23.966Z,29.40
2019-04-06T09:53:24.151Z,29.50
2019-04-06T09:54:23.921Z,31.20
2019-04-06T09:55:23.905Z,32.70
2019-04-06T09:56:23.923Z,29.30
2019-04-06T09:57:23.947Z,29.30
2019-04-06T09:58:23.898Z,29.10
2019-04-06T09:59:34.777Z,28.60
2019-04-06T10:00:24.877Z,29.70
2019-04-06T10:01:23.841Z,32.10
2019-04-06T10:02:23.827Z,27.30
2019-04-06T10:03:23.843Z,29.00
2019-04-06T10:04:23.803Z,32.80
2019-04-06T10:05:24.253Z,36.00
2019-04-06T10:06:23.799Z,30.90
2019-04-06T10:07:23.779Z,29.10
2019-04-06T10:08:23.788Z,34.70
2019-04-06T10:09:23.842Z,27.80
2019-04-06T10:10:25.377Z,27.40
2019-04-06T10:11:23.731Z,30.20
2019-04-06T10:12:23.721Z,29.70
2019-04-06T10:13:23.732Z,37.50
2019-04-06T10:14:23.708Z,27.40
2019-04-06T10:15:23.701Z,32.00
2019-04-06T10:16:23.699Z,28.20
2019-04-06T10:17:23.699Z,29.10
2019-04-06T10:18:23.672Z,27.90
2019-04-06T10:19:23.658Z,30.10
2019-04-06T10:20:23.877Z,26.40
2019-04-06T10:21:23.639Z,25.60
2019-04-06T10:22:23.610Z,27.70
2019-04-06T10:23:23.617Z,28.00
2019-04-06T10:24:23.599Z,27.00
2019-04-06T10:25:23.579Z,27.60
2019-04-06T10:26:23.575Z,27.70
2019-04-06T10:27:23.561Z,27.00
2019-04-06T10:28:23.565Z,26.10
2019-04-06T10:29:23.537Z,28.40
2019-04-06T10:30:23.635Z,27.10
2019-04-06T10:31:23.875Z,27.70
2019-04-06T10:32:23.540Z,27.40
2019-04-06T10:33:23.517Z,26.70
2019-04-06T10:34:23.489Z,27.50
2019-04-06T10:35:23.476Z,24.50
2019-04-06T10:36:23.475Z,25.30
2019-04-06T10:37:23.476Z,24.50
2019-04-06T10:38:23.630Z,25.30
2019-04-06T10:39:23.440Z,23.90
2019-04-06T10:40:23.425Z,24.40
2019-04-06T10:41:23.424Z,24.60
2019-04-06T10:42:23.407Z,25.80
2019-04-06T10:43:23.423Z,25.00
2019-04-06T10:44:23.391Z,24.80
2019-04-06T10:45:23.369Z,25.10
2019-04-06T10:46:23.359Z,26.70
2019-04-06T10:47:23.358Z,26.50
2019-04-06T10:48:23.369Z,24.60
2019-04-06T10:49:23.378Z,23.90
2019-04-06T10:50:23.324Z,23.40
2019-04-06T10:51:23.580Z,22.90
2019-04-06T10:52:23.296Z,22.40
2019-04-06T10:53:23.304Z,23.20
2019-04-06T10:54:23.317Z,26.10
2019-04-06T10:55:23.315Z,22.90
2019-04-06T10:56:23.263Z,23.40
2019-04-06T10:57:23.238Z,24.00
2019-04-06T10:58:23.310Z,23.60
2019-04-06T10:59:23.236Z,24.40
2019-04-06T11:00:23.229Z,22.80
2019-04-06T11:01:23.213Z,24.90
2019-04-06T11:02:23.187Z,21.80
2019-04-06T11:03:23.191Z,23.00
2019-04-06T11:04:23.164Z,23.10
2019-04-06T11:05:23.167Z,23.90
2019-04-06T11:06:23.142Z,24.30
2019-04-06T11:07:23.529Z,23.20
2019-04-06T11:08:23.235Z,25.20
2019-04-06T11:09:23.120Z,23.20
2019-04-06T11:11:24.173Z,26.00
2019-04-06T11:12:23.084Z,24.00
2019-04-06T11:13:23.097Z,21.70
2019-04-06T11:15:24.123Z,22.90
2019-04-06T11:16:23.125Z,24.30
2019-04-06T11:17:23.258Z,25.10
2019-04-06T11:18:23.114Z,24.40
2019-04-06T11:19:23.084Z,23.40
2019-04-06T11:20:23.117Z,23.00
2019-04-06T11:21:22.988Z,25.00
2019-04-06T11:22:22.975Z,24.10
2019-04-06T11:23:22.998Z,24.30
2019-04-06T11:24:22.963Z,26.20
2019-04-06T11:25:22.941Z,26.90
2019-04-06T11:26:23.045Z,27.80
2019-04-06T11:27:22.937Z,26.30
2019-04-06T11:28:22.934Z,24.30
2019-04-06T11:29:22.935Z,24.10
2019-04-06T11:30:22.918Z,22.80
2019-04-06T11:31:22.888Z,22.80
2019-04-06T11:32:22.873Z,23.70
2019-04-06T11:33:22.966Z,22.10
2019-04-06T11:34:22.860Z,23.90
2019-04-06T11:35:22.852Z,24.10
2019-04-06T11:36:22.840Z,23.30
2019-04-06T11:37:22.816Z,24.30
2019-04-06T11:38:22.881Z,23.80
2019-04-06T11:39:22.805Z,23.00
2019-04-06T11:40:22.815Z,23.90
2019-04-06T11:41:22.810Z,23.90
2019-04-06T11:42:22.777Z,24.10
2019-04-06T11:43:23.219Z,23.00
2019-04-06T11:44:22.754Z,22.40
2019-04-06T11:45:22.739Z,23.70
2019-04-06T11:46:22.742Z,24.00
2019-04-06T11:47:23.101Z,24.30
2019-04-06T11:48:22.750Z,24.60
2019-04-06T11:49:22.698Z,24.00
2019-04-06T11:50:22.906Z,25.10
2019-04-06T11:51:22.900Z,24.20
2019-04-06T11:52:22.666Z,24.20
2019-04-06T11:53:22.704Z,24.90
2019-04-06T11:54:22.884Z,24.90
2019-04-06T11:55:22.814Z,24.60
2019-04-06T11:56:22.822Z,27.10
2019-04-06T11:57:22.617Z,25.20
2019-04-06T11:58:22.633Z,24.00
2019-04-06T11:59:22.896Z,24.70
2019-04-06T12:00:26.448Z,24.40
2019-04-06T12:01:22.672Z,25.20
2019-04-06T12:02:22.794Z,24.50
2019-04-06T12:03:22.620Z,24.50
2019-04-06T12:04:22.755Z,25.10
2019-04-06T12:05:22.558Z,24.70
2019-04-06T12:06:22.775Z,24.50
2019-04-06T12:07:22.636Z,25.70
2019-04-06T12:08:22.539Z,24.10
2019-04-06T12:09:22.608Z,25.60
2019-04-06T12:10:23.772Z,24.80
2019-04-06T12:11:22.493Z,24.90
2019-04-06T12:12:22.475Z,25.60
2019-04-06T12:13:22.501Z,25.30
2019-04-06T12:14:22.455Z,26.00
2019-04-06T12:15:23.343Z,25.90
2019-04-06T12:16:22.448Z,25.40
2019-04-06T12:17:22.431Z,25.30
2019-04-06T12:18:22.441Z,25.70
2019-04-06T12:19:22.407Z,25.40
2019-04-06T12:20:22.385Z,25.30
2019-04-06T12:21:22.389Z,25.40
2019-04-06T12:22:22.988Z,25.40
2019-04-06T12:23:22.378Z,26.10
2019-04-06T12:24:22.387Z,24.90
2019-04-06T12:25:22.493Z,24.70
2019-04-06T12:26:22.345Z,26.00
2019-04-06T12:27:22.352Z,24.90
2019-04-06T12:28:22.345Z,23.50
2019-04-06T12:29:22.313Z,24.70
2019-04-06T12:30:22.327Z,24.70
2019-04-06T12:31:22.359Z,25.40
2019-04-06T12:32:22.277Z,25.90
2019-04-06T12:33:22.286Z,25.10
2019-04-06T12:34:22.437Z,27.20
2019-04-06T12:35:22.271Z,25.30
2019-04-06T12:36:22.250Z,25.40
2019-04-06T12:37:22.263Z,26.10
2019-04-06T12:38:24.755Z,25.80
2019-04-06T12:39:22.209Z,24.30
2019-04-06T12:40:22.217Z,23.60
2019-04-06T12:41:22.200Z,23.30
2019-04-06T12:42:22.187Z,23.00
2019-04-06T12:43:22.482Z,23.50
2019-04-06T12:44:22.291Z,23.30
2019-04-06T12:45:22.144Z,25.10
2019-04-06T12:46:22.157Z,24.30
2019-04-06T12:47:22.195Z,24.10
2019-04-06T12:48:22.160Z,24.30
2019-04-06T12:49:22.173Z,23.50
2019-04-06T12:50:22.111Z,24.70
2019-04-06T12:51:22.106Z,25.30
2019-04-06T12:52:22.101Z,25.80
2019-04-06T12:53:22.131Z,25.90
2019-04-06T12:54:22.083Z,25.30